Time;durP1;ratioP1;P1;durP2;ratioP2;P2;SDS_P1;SDS_P2;PMS_P1;PMS_P2;Temp;Humidity;BMP_temperature;BMP_pressure;BME280_temperature;BME280_humidity;BME280_pressure;Samples;Min_cycle;Max_cycle;Signal;HPM_P1;HPM_P2
2022/07/09 00:00:40;;;;;;;7.85;6.40;;;14.70;99.90;;;;;;2105631;28;20026;-65
2022/07/09 00:01:43;;;;;;;7.18;6.35;;;14.60;99.90;;;;;;2105182;28;20047;-65
2022/07/09 00:02:44;;;;;;;8.63;6.80;;;14.70;99.90;;;;;;2104521;28;20138;-65
2022/07/09 00:03:45;;;;;;;8.38;6.43;;;14.70;99.90;;;;;;2113221;28;20072;-65
2022/07/09 00:04:46;;;;;;;8.10;6.43;;;14.60;99.90;;;;;;2112815;28;20077;-65
2022/07/09 00:05:47;;;;;;;7.22;6.13;;;14.60;99.90;;;;;;2104003;28;20032;-66
2022/07/09 00:06:48;;;;;;;7.10;6.38;;;14.60;99.90;;;;;;2113025;28;20031;-65
2022/07/09 00:07:48;;;;;;;8.13;6.20;;;14.60;99.90;;;;;;2113089;28;20035;-66
2022/07/09 00:08:49;;;;;;;8.18;6.40;;;14.60;99.90;;;;;;2113032;28;20478;-66
2022/07/09 00:09:51;;;;;;;7.03;6.00;;;14.60;99.90;;;;;;2112944;28;20455;-66
2022/07/09 00:10:52;;;;;;;7.00;6.30;;;14.60;99.90;;;;;;2104535;28;20032;-67
2022/07/09 00:11:53;;;;;;;7.13;6.35;;;14.60;99.90;;;;;;2096462;28;20092;-66
2022/07/09 00:12:54;;;;;;;10.02;6.30;;;14.60;99.90;;;;;;2104842;28;20081;-65
2022/07/09 00:13:55;;;;;;;8.20;6.40;;;14.50;99.90;;;;;;2104712;28;20088;-66
2022/07/09 00:14:56;;;;;;;7.28;6.57;;;14.50;99.90;;;;;;2104430;28;20020;-66
2022/07/09 00:15:57;;;;;;;8.57;6.65;;;14.50;99.90;;;;;;2103999;28;20024;-65
2022/07/09 00:16:59;;;;;;;6.90;6.28;;;14.50;99.90;;;;;;2096204;28;20031;-67
2022/07/09 00:18:03;;;;;;;7.03;6.32;;;14.50;99.90;;;;;;2096574;28;20055;-66
2022/07/09 00:19:04;;;;;;;7.53;6.25;;;14.50;99.90;;;;;;2113088;28;20505;-65
2022/07/09 00:20:08;;;;;;;7.22;6.53;;;14.50;99.90;;;;;;2113013;28;20051;-65
2022/07/09 00:21:09;;;;;;;7.60;6.72;;;14.50;99.90;;;;;;2113100;28;20431;-65
2022/07/09 00:22:10;;;;;;;7.30;6.60;;;14.50;99.90;;;;;;2105044;28;20040;-67
2022/07/09 00:23:14;;;;;;;9.30;6.95;;;14.50;99.90;;;;;;2095749;28;20036;-65
2022/07/09 00:24:15;;;;;;;7.85;6.35;;;14.50;99.90;;;;;;2096876;28;20163;-69
2022/07/09 00:25:19;;;;;;;7.93;6.70;;;14.50;99.90;;;;;;2113294;28;20043;-66
2022/07/09 00:26:20;;;;;;;7.70;6.63;;;14.50;99.90;;;;;;2113165;28;20095;-66
2022/07/09 00:27:20;;;;;;;7.68;6.88;;;14.50;99.90;;;;;;2113294;28;20027;-65
2022/07/09 00:28:21;;;;;;;8.13;6.70;;;14.50;99.90;;;;;;2113363;28;20028;-65
2022/07/09 00:29:22;;;;;;;7.50;6.80;;;14.50;99.90;;;;;;2103856;28;20074;-66
2022/07/09 00:30:23;;;;;;;8.48;6.88;;;14.50;99.90;;;;;;2103607;28;20034;-66
2022/07/09 00:31:23;;;;;;;10.80;6.90;;;14.50;99.90;;;;;;2112269;28;20081;-66
2022/07/09 00:32:24;;;;;;;8.63;6.63;;;14.40;99.90;;;;;;2113213;28;20035;-66
2022/07/09 00:33:25;;;;;;;7.90;7.10;;;14.40;99.90;;;;;;2113260;28;20077;-65
2022/07/09 00:34:25;;;;;;;8.20;6.72;;;14.40;99.90;;;;;;2112933;28;20015;-66
2022/07/09 00:35:26;;;;;;;7.85;7.00;;;14.40;99.90;;;;;;2113028;28;20512;-66
2022/07/09 00:36:27;;;;;;;8.45;6.80;;;14.40;99.90;;;;;;2112831;28;20058;-66
2022/07/09 00:37:27;;;;;;;8.68;6.97;;;14.40;99.90;;;;;;2112834;28;20031;-65
2022/07/09 00:38:28;;;;;;;7.85;6.97;;;14.40;99.90;;;;;;2112433;28;20032;-66
2022/07/09 00:39:29;;;;;;;7.50;6.60;;;14.40;99.90;;;;;;2112850;28;20016;-65
2022/07/09 00:40:30;;;;;;;7.93;6.68;;;14.40;99.90;;;;;;2112603;28;20038;-65
2022/07/09 00:41:30;;;;;;;7.80;6.80;;;14.40;99.90;;;;;;2112784;28;20094;-66
2022/07/09 00:42:31;;;;;;;8.13;6.85;;;14.40;99.90;;;;;;2112883;28;20050;-66
2022/07/09 00:43:32;;;;;;;7.30;6.60;;;14.40;99.90;;;;;;2112764;28;20042;-66
2022/07/09 00:44:33;;;;;;;7.65;6.47;;;14.40;99.90;;;;;;2112214;28;20019;-66
2022/07/09 00:45:34;;;;;;;7.18;6.50;;;14.30;99.90;;;;;;2112279;28;20028;-66
2022/07/09 00:46:35;;;;;;;7.00;6.28;;;14.30;99.90;;;;;;2112943;28;20028;-65
2022/07/09 00:47:35;;;;;;;7.75;6.78;;;14.30;99.90;;;;;;2112158;28;20098;-65
2022/07/09 00:48:36;;;;;;;7.95;6.78;;;14.30;99.90;;;;;;2112090;28;20070;-65
2022/07/09 00:49:41;;;;;;;7.00;6.30;;;14.30;99.90;;;;;;2112761;28;20028;-66
2022/07/09 00:50:44;;;;;;;7.43;6.55;;;14.30;99.90;;;;;;2112926;28;20401;-65
2022/07/09 00:51:45;;;;;;;6.75;6.05;;;14.30;99.90;;;;;;2112498;28;20101;-65
2022/07/09 00:52:48;;;;;;;7.05;6.35;;;14.30;99.90;;;;;;2112336;28;20023;-66
2022/07/09 00:53:50;;;;;;;7.18;6.47;;;14.30;99.90;;;;;;2112921;28;20105;-65
2022/07/09 00:54:51;;;;;;;7.30;6.60;;;14.30;99.90;;;;;;2113193;28;20023;-64
2022/07/09 00:55:53;;;;;;;7.47;6.78;;;14.30;99.90;;;;;;2113173;28;20450;-65
2022/07/09 00:56:54;;;;;;;7.53;6.40;;;14.30;99.90;;;;;;2112386;28;20042;-65
2022/07/09 00:57:55;;;;;;;8.20;6.97;;;14.30;99.90;;;;;;2112162;28;20119;-65
2022/07/09 00:58:56;;;;;;;8.48;6.47;;;14.20;99.90;;;;;;2103691;28;20032;-66
2022/07/09 00:59:58;;;;;;;7.45;6.65;;;14.20;99.90;;;;;;2103525;28;20063;-65
2022/07/09 01:00:59;;;;;;;7.47;6.78;;;14.20;99.90;;;;;;2111902;28;20035;-66
2022/07/09 01:02:01;;;;;;;7.70;6.60;;;14.20;99.90;;;;;;2112081;28;20031;-65
2022/07/09 01:03:01;;;;;;;8.70;6.65;;;14.20;99.90;;;;;;2112690;28;20031;-66
2022/07/09 01:04:02;;;;;;;7.05;6.35;;;14.20;99.90;;;;;;2112739;28;20106;-65
2022/07/09 01:05:03;;;;;;;7.07;6.40;;;14.20;99.90;;;;;;2112202;28;20031;-67
2022/07/09 01:06:04;;;;;;;6.85;6.25;;;14.10;99.90;;;;;;2112023;28;20488;-65
2022/07/09 01:07:05;;;;;;;7.55;6.47;;;14.20;99.90;;;;;;2112552;28;20489;-64
2022/07/09 01:08:07;;;;;;;6.95;6.30;;;14.10;99.90;;;;;;2111900;28;20035;-67
2022/07/09 01:09:09;;;;;;;7.70;7.00;;;14.10;99.90;;;;;;2103827;28;20490;-66
2022/07/09 01:10:10;;;;;;;8.70;6.55;;;14.10;99.90;;;;;;2111904;28;20173;-64
2022/07/09 01:11:10;;;;;;;8.40;7.53;;;14.10;99.90;;;;;;2112626;28;20027;-66
2022/07/09 01:12:11;;;;;;;8.98;7.03;;;14.10;99.90;;;;;;2103121;28;20081;-64
2022/07/09 01:13:12;;;;;;;7.85;6.82;;;14.00;99.90;;;;;;2103580;28;20474;-66
2022/07/09 01:14:13;;;;;;;7.03;6.32;;;14.00;99.90;;;;;;2111969;28;20031;-65
2022/07/09 01:15:13;;;;;;;8.60;6.72;;;14.00;99.90;;;;;;2103464;28;20563;-65
2022/07/09 01:16:15;;;;;;;9.13;7.10;;;14.00;99.90;;;;;;2111982;28;20020;-66
2022/07/09 01:17:19;;;;;;;9.02;6.70;;;14.00;99.90;;;;;;2112677;28;20027;-63
2022/07/09 01:18:20;;;;;;;7.97;6.97;;;14.00;99.90;;;;;;2111733;28;20028;-65
2022/07/09 01:19:20;;;;;;;7.60;6.90;;;14.00;99.90;;;;;;2103723;28;20501;-66
2022/07/09 01:20:29;;;;;;;7.85;7.05;;;14.00;99.90;;;;;;2103861;28;20032;-66
2022/07/09 01:21:29;;;;;;;7.53;6.65;;;13.90;99.90;;;;;;2112696;28;20094;-65
2022/07/09 01:22:30;;;;;;;8.05;7.30;;;14.00;99.90;;;;;;2112582;28;20023;-66
2022/07/09 01:23:31;;;;;;;9.00;7.40;;;14.00;99.90;;;;;;2113086;28;20026;-65
2022/07/09 01:24:32;;;;;;;8.02;7.10;;;14.00;99.90;;;;;;2113215;27;20533;-65
2022/07/09 01:25:40;;;;;;;7.60;6.90;;;14.00;99.90;;;;;;2112477;28;20031;-65
2022/07/09 01:26:40;;;;;;;8.15;6.78;;;13.90;99.90;;;;;;2105281;28;20053;-65
2022/07/09 01:27:41;;;;;;;9.27;7.07;;;13.90;99.90;;;;;;2105351;28;20094;-64
2022/07/09 01:28:42;;;;;;;7.60;6.90;;;13.90;99.90;;;;;;2105826;28;20401;-66
2022/07/09 01:29:48;;;;;;;8.98;7.13;;;13.90;99.90;;;;;;2106028;28;20363;-66
2022/07/09 01:30:49;;;;;;;8.48;6.45;;;13.90;99.90;;;;;;2114507;28;20035;-65
2022/07/09 01:31:49;;;;;;;7.93;7.00;;;13.90;99.90;;;;;;2114007;28;20031;-65
2022/07/09 01:32:50;;;;;;;8.30;7.03;;;13.90;99.90;;;;;;2114505;28;20070;-66
2022/07/09 01:33:51;;;;;;;8.10;7.30;;;13.90;99.90;;;;;;2114913;28;20074;-67
2022/07/09 01:34:52;;;;;;;8.07;7.18;;;13.90;99.90;;;;;;2114762;28;20046;-66
2022/07/09 01:35:52;;;;;;;8.00;6.97;;;13.90;99.90;;;;;;2114426;28;20348;-66
2022/07/09 01:36:53;;;;;;;8.90;7.00;;;13.90;99.90;;;;;;2114426;28;20442;-67
2022/07/09 01:37:54;;;;;;;8.38;6.95;;;13.90;99.90;;;;;;2114671;27;20430;-66
2022/07/09 01:38:54;;;;;;;7.90;6.95;;;14.00;99.90;;;;;;2114614;27;20046;-66
2022/07/09 01:39:55;;;;;;;8.00;7.10;;;13.90;99.90;;;;;;2114649;27;20453;-67
2022/07/09 01:40:57;;;;;;;7.65;6.85;;;14.00;99.90;;;;;;2114354;28;20103;-66
2022/07/09 01:41:58;;;;;;;7.35;6.60;;;14.00;99.90;;;;;;2114550;28;20035;-67
2022/07/09 01:42:58;;;;;;;7.53;6.78;;;14.00;99.90;;;;;;2113617;28;20023;-65
2022/07/09 01:43:59;;;;;;;10.38;6.85;;;14.00;99.90;;;;;;2113613;28;20106;-67
2022/07/09 01:45:00;;;;;;;7.65;6.85;;;14.00;99.90;;;;;;2114304;28;20019;-67
2022/07/09 01:46:00;;;;;;;8.50;6.70;;;14.00;99.90;;;;;;2114429;28;20066;-67
2022/07/09 01:47:01;;;;;;;8.45;6.68;;;14.00;99.90;;;;;;2114302;28;20027;-65
2022/07/09 01:48:02;;;;;;;7.38;6.68;;;14.00;99.90;;;;;;2113716;28;20557;-66
2022/07/09 01:49:04;;;;;;;7.30;6.60;;;14.00;99.90;;;;;;2113585;28;20073;-66
2022/07/09 01:50:05;;;;;;;7.47;6.65;;;14.00;99.90;;;;;;2114637;28;20031;-65
2022/07/09 01:51:06;;;;;;;7.25;6.50;;;14.00;99.90;;;;;;2114421;28;20030;-66
2022/07/09 01:52:07;;;;;;;6.90;6.30;;;14.00;99.90;;;;;;2114201;28;20039;-65
2022/07/09 01:53:08;;;;;;;8.75;6.90;;;14.00;99.90;;;;;;2114025;28;20148;-65
2022/07/09 01:54:08;;;;;;;7.30;6.57;;;14.00;99.90;;;;;;2114091;28;20424;-66
2022/07/09 01:55:09;;;;;;;7.97;6.65;;;14.00;99.90;;;;;;2113925;28;20019;-66
2022/07/09 01:56:11;;;;;;;8.73;7.10;;;14.00;99.90;;;;;;2114157;28;20039;-66
2022/07/09 01:57:12;;;;;;;8.50;6.63;;;14.00;99.90;;;;;;2114195;28;20172;-64
2022/07/09 01:58:13;;;;;;;7.10;6.40;;;14.00;99.90;;;;;;2113894;28;20505;-66
2022/07/09 01:59:14;;;;;;;7.57;6.63;;;14.00;99.90;;;;;;2113929;28;20038;-67
2022/07/09 02:00:15;;;;;;;7.75;6.95;;;14.00;99.90;;;;;;2113825;28;20462;-66
2022/07/09 02:01:17;;;;;;;8.43;7.18;;;14.00;99.90;;;;;;2113371;28;20014;-65
2022/07/09 02:02:18;;;;;;;10.20;7.05;;;14.00;99.90;;;;;;2113672;28;20555;-66
2022/07/09 02:03:19;;;;;;;7.45;6.72;;;14.00;99.90;;;;;;2114179;28;20538;-66
2022/07/09 02:04:20;;;;;;;8.88;7.10;;;14.00;99.90;;;;;;2114147;28;20453;-66
2022/07/09 02:05:21;;;;;;;7.68;6.70;;;14.00;99.90;;;;;;2114260;28;20080;-66
2022/07/09 02:06:21;;;;;;;9.52;6.90;;;14.00;99.90;;;;;;2114113;27;20470;-64
2022/07/09 02:07:22;;;;;;;12.57;7.50;;;14.00;99.90;;;;;;2114200;28;20055;-65
2022/07/09 02:08:23;;;;;;;8.73;7.40;;;14.00;99.90;;;;;;2113008;28;20024;-66
2022/07/09 02:09:23;;;;;;;8.82;7.05;;;13.90;99.90;;;;;;2113565;28;20028;-66
2022/07/09 02:10:24;;;;;;;7.68;6.75;;;14.00;99.90;;;;;;2113908;28;20035;-65
2022/07/09 02:11:25;;;;;;;8.00;7.20;;;14.00;99.90;;;;;;2113882;28;20494;-66
2022/07/09 02:12:25;;;;;;;8.20;7.00;;;14.00;99.90;;;;;;2113888;28;20035;-66
2022/07/09 02:13:26;;;;;;;8.27;7.07;;;14.00;99.90;;;;;;2114059;28;20027;-66
2022/07/09 02:14:27;;;;;;;8.50;7.00;;;14.00;99.90;;;;;;2113331;28;20584;-66
2022/07/09 02:15:28;;;;;;;8.73;7.53;;;14.00;99.90;;;;;;2113158;28;20177;-66
2022/07/09 02:16:28;;;;;;;8.48;7.18;;;14.00;99.90;;;;;;2113372;28;20027;-65
2022/07/09 02:17:29;;;;;;;8.77;7.60;;;14.00;99.90;;;;;;2113501;28;20028;-65
2022/07/09 02:18:29;;;;;;;7.70;7.00;;;13.90;99.90;;;;;;2113880;28;20027;-65
2022/07/09 02:19:30;;;;;;;9.00;7.68;;;13.90;99.90;;;;;;2114024;28;20054;-66
2022/07/09 02:20:32;;;;;;;8.82;7.50;;;13.90;99.90;;;;;;2112987;28;20405;-65
2022/07/09 02:21:34;;;;;;;11.02;8.30;;;13.90;99.90;;;;;;2113314;28;20047;-66
2022/07/09 02:22:35;;;;;;;9.90;7.82;;;13.90;99.90;;;;;;2113811;28;20053;-66
2022/07/09 02:23:35;;;;;;;9.45;8.02;;;13.90;99.90;;;;;;2114174;28;20380;-66
2022/07/09 02:24:36;;;;;;;8.95;7.93;;;13.90;99.90;;;;;;2113945;28;20051;-67
2022/07/09 02:25:37;;;;;;;8.70;7.80;;;13.90;99.90;;;;;;2113814;28;20445;-66
2022/07/09 02:26:37;;;;;;;8.75;7.85;;;13.90;99.90;;;;;;2114045;28;20080;-66
2022/07/09 02:27:38;;;;;;;10.98;8.65;;;13.80;99.90;;;;;;2114239;28;20026;-66
2022/07/09 02:28:39;;;;;;;9.80;8.50;;;13.80;99.90;;;;;;2113758;28;20059;-66
2022/07/09 02:29:39;;;;;;;9.70;8.43;;;13.80;99.90;;;;;;2112919;28;20043;-66
2022/07/09 02:30:40;;;;;;;9.65;8.50;;;13.80;99.90;;;;;;2113054;28;20032;-66
2022/07/09 02:31:41;;;;;;;9.57;8.57;;;13.80;99.90;;;;;;2113848;28;20047;-66
2022/07/09 02:32:41;;;;;;;9.90;8.70;;;13.70;99.90;;;;;;2113750;28;20058;-66
2022/07/09 02:33:42;;;;;;;9.65;8.75;;;13.70;99.90;;;;;;2113925;28;20103;-65
2022/07/09 02:34:43;;;;;;;9.88;8.88;;;13.70;99.90;;;;;;2113687;28;20039;-67
2022/07/09 02:35:43;;;;;;;8.90;8.10;;;13.70;99.90;;;;;;2113915;28;20081;-65
2022/07/09 02:36:44;;;;;;;9.45;8.43;;;13.70;99.90;;;;;;2113920;28;20038;-66
2022/07/09 02:37:45;;;;;;;9.43;8.45;;;13.70;99.90;;;;;;2113784;28;20031;-65
2022/07/09 02:38:45;;;;;;;10.00;8.52;;;13.70;99.90;;;;;;2113084;28;20019;-63
2022/07/09 02:39:46;;;;;;;10.48;9.05;;;13.70;99.90;;;;;;2113013;28;20028;-66
2022/07/09 02:40:48;;;;;;;10.32;9.25;;;13.70;99.90;;;;;;2113857;28;20101;-63
2022/07/09 02:41:49;;;;;;;10.38;9.18;;;13.70;99.90;;;;;;2113464;28;20028;-65
2022/07/09 02:42:50;;;;;;;10.45;9.32;;;13.70;99.90;;;;;;2104957;28;20078;-64
2022/07/09 02:43:50;;;;;;;10.05;9.00;;;13.70;99.90;;;;;;2104786;28;20032;-65
2022/07/09 02:44:51;;;;;;;9.68;8.68;;;13.70;99.90;;;;;;2113271;28;20024;-66
2022/07/09 02:45:55;;;;;;;9.77;8.85;;;13.70;99.90;;;;;;2113599;28;20034;-65
2022/07/09 02:46:55;;;;;;;10.65;9.40;;;13.80;99.90;;;;;;2113778;28;20020;-66
2022/07/09 02:47:56;;;;;;;9.85;8.68;;;13.70;99.90;;;;;;2113837;28;20389;-66
2022/07/09 02:48:57;;;;;;;10.25;9.07;;;13.70;99.90;;;;;;2114060;28;20072;-64
2022/07/09 02:49:57;;;;;;;9.63;8.63;;;13.70;99.90;;;;;;2113870;28;20453;-65
2022/07/09 02:50:58;;;;;;;10.18;9.18;;;13.70;99.90;;;;;;2113922;28;20104;-66
2022/07/09 02:51:59;;;;;;;10.00;8.90;;;13.70;99.90;;;;;;2113996;28;20447;-66
2022/07/09 02:53:00;;;;;;;10.80;9.05;;;13.70;99.90;;;;;;2113701;28;20512;-66
2022/07/09 02:54:01;;;;;;;9.80;8.80;;;13.70;99.90;;;;;;2114013;28;20127;-66
2022/07/09 02:55:01;;;;;;;9.23;8.32;;;13.60;99.90;;;;;;2113674;28;20027;-66
2022/07/09 02:56:02;;;;;;;9.00;8.10;;;13.60;99.90;;;;;;2113681;28;20028;-67
2022/07/09 02:57:03;;;;;;;10.75;8.77;;;13.70;99.90;;;;;;2113727;28;20534;-67
2022/07/09 02:58:04;;;;;;;9.95;8.95;;;13.60;99.90;;;;;;2112928;28;20038;-66
2022/07/09 02:59:04;;;;;;;9.40;8.50;;;13.60;99.90;;;;;;2113141;28;20024;-66
2022/07/09 03:00:06;;;;;;;9.73;8.73;;;13.60;99.90;;;;;;2112883;28;20028;-66
2022/07/09 03:01:06;;;;;;;12.48;8.68;;;13.60;99.90;;;;;;2113005;28;20023;-66
2022/07/09 03:02:07;;;;;;;9.63;8.63;;;13.60;99.90;;;;;;2113710;28;20052;-66
2022/07/09 03:03:08;;;;;;;10.32;8.50;;;13.60;99.90;;;;;;2113848;28;20024;-66
2022/07/09 03:04:08;;;;;;;9.65;8.60;;;13.60;99.90;;;;;;2113695;28;20056;-65
2022/07/09 03:05:09;;;;;;;10.90;8.80;;;13.60;99.90;;;;;;2113319;28;20058;-66
2022/07/09 03:06:10;;;;;;;9.93;8.30;;;13.60;99.90;;;;;;2113708;28;20558;-66
2022/07/09 03:07:11;;;;;;;9.35;8.10;;;13.60;99.90;;;;;;2113227;28;20030;-65
2022/07/09 03:08:11;;;;;;;9.30;8.40;;;13.60;99.90;;;;;;2112768;28;20023;-66
2022/07/09 03:09:12;;;;;;;8.90;8.10;;;13.50;99.90;;;;;;2113736;28;20075;-66
2022/07/09 03:10:13;;;;;;;9.23;8.23;;;13.50;99.90;;;;;;2112778;28;20036;-66
2022/07/09 03:11:14;;;;;;;9.57;8.40;;;13.60;99.90;;;;;;2112917;28;20496;-65
2022/07/09 03:12:14;;;;;;;9.18;8.27;;;13.50;99.90;;;;;;2112946;28;20106;-66
2022/07/09 03:13:15;;;;;;;9.27;8.38;;;13.50;99.90;;;;;;2104475;28;20543;-66
2022/07/09 03:14:16;;;;;;;9.95;8.95;;;13.50;99.90;;;;;;2113011;28;20031;-65
2022/07/09 03:15:17;;;;;;;10.48;8.93;;;13.40;99.90;;;;;;2113661;28;20035;-67
2022/07/09 03:16:18;;;;;;;10.32;8.93;;;13.40;99.90;;;;;;2113529;28;20036;-66
2022/07/09 03:17:19;;;;;;;12.48;9.10;;;13.50;99.90;;;;;;2104463;28;20028;-65
2022/07/09 03:18:19;;;;;;;9.95;8.95;;;13.50;99.90;;;;;;2096012;28;20139;-66
2022/07/09 03:19:20;;;;;;;10.38;9.18;;;13.40;99.90;;;;;;2113052;28;20028;-66
2022/07/09 03:20:20;;;;;;;10.38;9.38;;;13.40;99.90;;;;;;2113350;28;20027;-66
2022/07/09 03:21:21;;;;;;;12.35;8.93;;;13.40;99.90;;;;;;2113689;28;20152;-66
2022/07/09 03:22:22;;;;;;;11.20;9.50;;;13.40;99.90;;;;;;2113423;28;20485;-66
2022/07/09 03:23:23;;;;;;;10.30;9.25;;;13.40;99.90;;;;;;2112865;28;20016;-67
2022/07/09 03:24:23;;;;;;;10.25;9.20;;;13.40;99.90;;;;;;2104467;28;20635;-67
2022/07/09 03:25:24;;;;;;;10.90;9.27;;;13.40;99.90;;;;;;2104560;28;20082;-65
2022/07/09 03:26:24;;;;;;;10.60;9.50;;;13.40;99.90;;;;;;2112865;28;20027;-66
2022/07/09 03:27:25;;;;;;;11.27;9.82;;;13.40;99.90;;;;;;2113508;28;20039;-66
2022/07/09 03:28:26;;;;;;;11.15;9.52;;;13.40;99.90;;;;;;2113343;28;20046;-66
2022/07/09 03:29:26;;;;;;;10.80;9.20;;;13.40;99.90;;;;;;2104621;28;20111;-66
2022/07/09 03:30:27;;;;;;;12.68;9.13;;;13.40;99.90;;;;;;2104335;28;20383;-65
2022/07/09 03:31:28;;;;;;;10.07;9.07;;;13.40;99.90;;;;;;2113366;28;20049;-66
2022/07/09 03:32:29;;;;;;;9.73;8.73;;;13.40;99.90;;;;;;2113438;28;20028;-66
2022/07/09 03:33:29;;;;;;;9.70;8.70;;;13.40;99.90;;;;;;2113523;28;20081;-66
2022/07/09 03:34:30;;;;;;;10.15;9.10;;;13.40;99.90;;;;;;2113426;28;20251;-66
2022/07/09 03:35:31;;;;;;;11.30;8.70;;;13.40;99.90;;;;;;2113630;28;20442;-65
2022/07/09 03:36:31;;;;;;;11.07;8.68;;;13.40;99.90;;;;;;2113643;28;20503;-66
2022/07/09 03:37:33;;;;;;;9.65;8.60;;;13.40;99.90;;;;;;2113423;28;20032;-65
2022/07/09 03:38:34;;;;;;;9.27;8.30;;;13.50;99.90;;;;;;2113399;28;20027;-66
2022/07/09 03:39:35;;;;;;;9.82;8.93;;;13.40;99.90;;;;;;2113200;28;20419;-67
2022/07/09 03:40:36;;;;;;;9.90;8.90;;;13.50;99.90;;;;;;2113329;28;20032;-67
2022/07/09 03:41:36;;;;;;;9.55;8.65;;;13.50;99.90;;;;;;2113224;28;20031;-67
2022/07/09 03:42:37;;;;;;;9.63;8.63;;;13.50;99.90;;;;;;2113427;28;20520;-67
2022/07/09 03:43:37;;;;;;;9.38;8.48;;;13.50;99.90;;;;;;2113391;28;20031;-66
2022/07/09 03:44:38;;;;;;;9.57;8.57;;;13.50;99.90;;;;;;2113310;28;20027;-66
2022/07/09 03:45:39;;;;;;;9.63;8.63;;;13.60;99.90;;;;;;2113386;28;20027;-65
2022/07/09 03:46:40;;;;;;;11.05;9.18;;;13.60;99.90;;;;;;2113314;28;20084;-65
2022/07/09 03:47:40;;;;;;;10.00;8.70;;;13.60;99.90;;;;;;2113171;28;20024;-66
2022/07/09 03:48:41;;;;;;;9.80;8.80;;;13.60;99.90;;;;;;2113200;28;20116;-65
2022/07/09 03:49:42;;;;;;;9.73;8.60;;;13.60;99.90;;;;;;2112926;28;20034;-65
2022/07/09 03:50:42;;;;;;;9.13;8.23;;;13.60;99.90;;;;;;2112674;28;20514;-66
2022/07/09 03:51:44;;;;;;;9.35;8.38;;;13.70;99.90;;;;;;2113212;28;20031;-65
2022/07/09 03:52:44;;;;;;;9.07;8.13;;;13.70;99.90;;;;;;2113180;28;20093;-65
2022/07/09 03:53:45;;;;;;;9.23;8.32;;;13.70;99.90;;;;;;2113204;28;20072;-64
2022/07/09 03:54:46;;;;;;;9.77;8.65;;;13.70;99.90;;;;;;2113290;28;20647;-65
2022/07/09 03:55:46;;;;;;;9.60;8.38;;;13.70;99.90;;;;;;2113303;28;20551;-66
2022/07/09 03:56:47;;;;;;;9.18;8.27;;;13.80;99.90;;;;;;2113100;28;20039;-67
2022/07/09 03:57:48;;;;;;;9.60;8.60;;;13.80;99.90;;;;;;2112640;28;20036;-66
2022/07/09 03:58:48;;;;;;;9.20;8.30;;;13.80;99.90;;;;;;2112486;28;20633;-66
2022/07/09 03:59:49;;;;;;;9.52;8.02;;;13.90;99.90;;;;;;2112702;28;20031;-66
2022/07/09 04:00:52;;;;;;;9.50;7.80;;;13.90;99.90;;;;;;2112449;28;20039;-66
2022/07/09 04:01:53;;;;;;;9.43;8.02;;;13.90;99.90;;;;;;2112649;28;20019;-67
2022/07/09 04:02:54;;;;;;;10.45;8.00;;;14.00;99.90;;;;;;2113152;28;20078;-66
2022/07/09 04:03:54;;;;;;;8.60;7.80;;;14.00;99.90;;;;;;2113194;28;20055;-66
2022/07/09 04:04:56;;;;;;;8.85;7.85;;;14.10;99.90;;;;;;2113251;28;20028;-66
2022/07/09 04:05:57;;;;;;;8.55;7.53;;;14.20;99.90;;;;;;2113264;28;20019;-66
2022/07/09 04:06:57;;;;;;;8.25;7.32;;;14.30;99.90;;;;;;2113273;28;20028;-65
2022/07/09 04:07:58;;;;;;;9.82;7.82;;;14.40;99.90;;;;;;2112625;28;20038;-65
2022/07/09 04:09:03;;;;;;;9.75;7.90;;;14.50;99.90;;;;;;2104405;28;20024;-65
2022/07/09 04:10:05;;;;;;;8.43;7.63;;;14.60;99.90;;;;;;2105146;28;20042;-67
2022/07/09 04:11:06;;;;;;;8.48;7.45;;;14.70;99.90;;;;;;2113115;28;20031;-65
2022/07/09 04:12:07;;;;;;;8.93;6.97;;;14.90;99.90;;;;;;2113720;28;20084;-65
2022/07/09 04:13:08;;;;;;;7.22;6.43;;;15.30;99.90;;;;;;2112899;28;20486;-66
2022/07/09 04:14:09;;;;;;;8.07;6.13;;;15.50;99.90;;;;;;2112977;28;20074;-66
2022/07/09 04:15:12;;;;;;;9.13;6.25;;;15.80;99.90;;;;;;2113516;28;20320;-66
2022/07/09 04:16:13;;;;;;;7.85;5.75;;;16.00;99.90;;;;;;2113291;28;20051;-66
2022/07/09 04:17:14;;;;;;;8.75;6.10;;;16.10;99.90;;;;;;2112588;28;20027;-66
2022/07/09 04:18:17;;;;;;;6.95;6.25;;;16.20;99.90;;;;;;2112296;28;20068;-67
2022/07/09 04:19:18;;;;;;;7.10;6.05;;;16.40;99.90;;;;;;2113076;28;20023;-64
2022/07/09 04:20:19;;;;;;;6.80;5.70;;;16.60;99.90;;;;;;2112181;28;20100;-65
2022/07/09 04:21:22;;;;;;;6.50;5.57;;;16.90;99.90;;;;;;2112163;28;20183;-66
2022/07/09 04:22:23;;;;;;;5.85;5.25;;;17.10;99.90;;;;;;2113107;28;20016;-66
2022/07/09 04:23:24;;;;;;;6.30;5.50;;;17.40;99.90;;;;;;2113168;28;20034;-65
2022/07/09 04:24:24;;;;;;;6.65;5.53;;;17.70;99.90;;;;;;2113122;28;20028;-66
2022/07/09 04:25:25;;;;;;;7.30;5.80;;;18.00;99.90;;;;;;2113247;28;20023;-65
2022/07/09 04:26:26;;;;;;;6.22;5.28;;;18.30;99.90;;;;;;2112093;28;20038;-64
2022/07/09 04:27:27;;;;;;;6.10;5.25;;;18.50;99.90;;;;;;2112469;28;20327;-65
2022/07/09 04:28:28;;;;;;;6.25;5.03;;;18.70;99.90;;;;;;2112988;28;20562;-66
2022/07/09 04:29:29;;;;;;;5.57;5.00;;;18.80;99.90;;;;;;2113024;28;20092;-66
2022/07/09 04:30:29;;;;;;;5.45;4.93;;;18.80;99.90;;;;;;2112026;28;20030;-65
2022/07/09 04:31:30;;;;;;;5.90;5.25;;;18.60;99.90;;;;;;2112238;28;20573;-66
2022/07/09 04:32:31;;;;;;;5.35;4.70;;;18.40;99.90;;;;;;2113092;28;20028;-65
2022/07/09 04:33:32;;;;;;;5.80;5.20;;;18.30;99.90;;;;;;2113066;28;20036;-67
2022/07/09 04:34:32;;;;;;;5.38;4.80;;;18.10;99.90;;;;;;2112715;28;20066;-66
2022/07/09 04:35:35;;;;;;;6.07;4.65;;;18.00;99.90;;;;;;2112500;28;20031;-66
2022/07/09 04:36:36;;;;;;;5.90;4.80;;;17.90;99.90;;;;;;2113066;28;20032;-67
2022/07/09 04:37:36;;;;;;;7.65;4.82;;;17.90;99.90;;;;;;2112652;28;20074;-66
2022/07/09 04:38:37;;;;;;;9.63;5.05;;;17.90;99.90;;;;;;2112554;28;20035;-66
2022/07/09 04:39:38;;;;;;;6.00;5.00;;;17.90;99.90;;;;;;2112502;28;20023;-66
2022/07/09 04:40:39;;;;;;;5.10;4.60;;;17.80;99.90;;;;;;2113731;28;20508;-65
2022/07/09 04:41:45;;;;;;;5.75;5.00;;;17.70;99.90;;;;;;2114425;28;20428;-65
2022/07/09 04:42:45;;;;;;;5.78;4.95;;;17.60;99.90;;;;;;2113872;28;20031;-65
2022/07/09 04:43:46;;;;;;;6.75;5.50;;;17.50;99.90;;;;;;2114442;28;20069;-66
2022/07/09 04:44:46;;;;;;;6.32;5.13;;;17.40;99.90;;;;;;2115621;28;20505;-66
2022/07/09 04:45:47;;;;;;;6.00;4.68;;;17.30;99.90;;;;;;2116287;28;20038;-66
2022/07/09 04:46:48;;;;;;;5.60;5.03;;;17.30;99.90;;;;;;2115069;28;20051;-66
2022/07/09 04:47:49;;;;;;;6.28;5.30;;;17.20;99.90;;;;;;2115061;28;20031;-66
2022/07/09 04:48:49;;;;;;;5.57;4.78;;;17.10;99.90;;;;;;2114978;28;20035;-67
2022/07/09 04:49:50;;;;;;;4.93;4.43;;;17.20;99.90;;;;;;2115543;28;20028;-67
2022/07/09 04:50:50;;;;;;;6.60;4.32;;;17.10;99.90;;;;;;2116055;28;20110;-66
2022/07/09 04:51:51;;;;;;;4.80;4.32;;;17.10;99.90;;;;;;2115937;28;20063;-67
2022/07/09 04:52:54;;;;;;;5.70;4.65;;;17.10;99.90;;;;;;2115357;28;20028;-66
2022/07/09 04:53:55;;;;;;;5.28;4.32;;;17.20;99.90;;;;;;2115945;28;20059;-67
2022/07/09 04:54:56;;;;;;;7.40;4.68;;;17.20;99.90;;;;;;2113859;28;20035;-66
2022/07/09 04:55:57;;;;;;;5.63;4.18;;;17.20;99.90;;;;;;2105251;28;20028;-67
2022/07/09 04:56:57;;;;;;;5.00;4.50;;;17.30;99.90;;;;;;2104993;28;20039;-66
2022/07/09 04:57:58;;;;;;;6.28;4.35;;;17.30;99.90;;;;;;2114526;28;20036;-66
2022/07/09 04:59:00;;;;;;;4.75;3.60;;;17.30;99.90;;;;;;2113922;28;20032;-66
2022/07/09 05:00:01;;;;;;;4.85;4.38;;;17.30;99.90;;;;;;2114568;28;20296;-65
2022/07/09 05:01:02;;;;;;;5.03;3.72;;;17.30;99.90;;;;;;2105307;28;20024;-65
2022/07/09 05:02:03;;;;;;;4.88;4.00;;;17.30;99.90;;;;;;2104982;28;20424;-65
2022/07/09 05:03:04;;;;;;;6.43;4.60;;;17.20;99.90;;;;;;2113198;28;20115;-66
2022/07/09 05:04:04;;;;;;;5.35;3.80;;;17.20;99.90;;;;;;2113963;28;20452;-65
2022/07/09 05:05:06;;;;;;;4.85;3.50;;;17.20;99.90;;;;;;2114425;28;20058;-66
2022/07/09 05:06:07;;;;;;;4.78;3.95;;;17.30;99.90;;;;;;2114985;28;20439;-65
2022/07/09 05:07:08;;;;;;;7.35;4.50;;;17.30;99.90;;;;;;2113755;28;20020;-66
2022/07/09 05:08:09;;;;;;;7.70;4.43;;;17.40;99.90;;;;;;2114721;28;20102;-67
2022/07/09 05:09:09;;;;;;;6.38;4.70;;;17.30;99.90;;;;;;2114984;28;20039;-67
2022/07/09 05:10:10;;;;;;;10.38;4.57;;;17.30;99.90;;;;;;2114590;28;20024;-67
2022/07/09 05:11:11;;;;;;;7.60;4.72;;;17.30;99.90;;;;;;2115287;28;20028;-66
2022/07/09 05:12:12;;;;;;;5.25;3.95;;;17.20;99.90;;;;;;2113734;28;20039;-66
2022/07/09 05:13:12;;;;;;;6.18;4.00;;;17.20;99.90;;;;;;2104532;28;20030;-66
2022/07/09 05:14:13;;;;;;;7.13;4.00;;;17.30;99.90;;;;;;2112751;28;20030;-65
2022/07/09 05:15:14;;;;;;;4.90;3.63;;;17.30;99.90;;;;;;2113556;28;20477;-66
2022/07/09 05:16:15;;;;;;;3.30;3.00;;;17.30;99.90;;;;;;2114642;28;20445;-66
2022/07/09 05:17:15;;;;;;;4.03;3.25;;;17.30;99.90;;;;;;2113872;28;20028;-66